createdAt,value
2023-05-06T00:00:17.589Z,13.03
2023-05-06T00:02:46.144Z,5.37
2023-05-06T00:05:15.202Z,6.57
2023-05-06T00:07:43.519Z,6.53
2023-05-06T00:10:12.110Z,21.67
2023-05-06T00:12:40.969Z,8.40
2023-05-06T00:15:11.863Z,11.17
2023-05-06T00:17:40.652Z,9.90
2023-05-06T00:20:10.762Z,7.70
2023-05-06T00:22:39.249Z,6.03
2023-05-06T00:25:08.573Z,5.13
2023-05-06T00:27:38.170Z,5.70
2023-05-06T00:30:07.547Z,8.87
2023-05-06T00:32:37.458Z,5.00
2023-05-06T00:35:06.927Z,6.43
2023-05-06T00:37:35.501Z,4.93
2023-05-06T00:40:04.222Z,5.13
2023-05-06T00:42:34.204Z,4.97
2023-05-06T00:45:02.592Z,4.37
2023-05-06T00:47:31.339Z,5.77
2023-05-06T00:50:01.438Z,5.13
2023-05-06T00:52:30.242Z,4.47
2023-05-06T00:54:58.732Z,3.60
2023-05-06T00:57:27.514Z,3.50
2023-05-06T00:59:56.418Z,4.80
2023-05-06T01:02:28.502Z,7.43
2023-05-06T01:05:07.066Z,4.17
2023-05-06T01:07:42.238Z,2.70
2023-05-06T01:10:20.182Z,5.80
2023-05-06T01:12:58.563Z,6.20
2023-05-06T01:15:34.655Z,4.47
2023-05-06T01:18:10.324Z,12.73
2023-05-06T01:20:42.336Z,2.90
2023-05-06T01:23:13.831Z,7.10
2023-05-06T01:25:42.828Z,8.03
2023-05-06T01:28:12.678Z,7.30
2023-05-06T01:30:49.734Z,5.03
2023-05-06T01:33:25.203Z,4.70
2023-05-06T01:36:02.897Z,3.33
2023-05-06T01:38:39.040Z,3.47
2023-05-06T01:41:08.591Z,15.40
2023-05-06T01:43:42.698Z,16.77
2023-05-06T01:46:16.044Z,10.70
2023-05-06T01:48:46.437Z,7.10
2023-05-06T01:51:14.816Z,6.50
2023-05-06T01:53:44.570Z,3.23
2023-05-06T01:56:12.901Z,3.20
2023-05-06T01:58:41.348Z,2.50
2023-05-06T02:01:09.688Z,10.00
2023-05-06T02:03:38.417Z,5.40
2023-05-06T02:06:06.899Z,15.27
2023-05-06T02:08:39.956Z,3.27
2023-05-06T02:11:13.046Z,2.67
2023-05-06T02:13:42.422Z,4.33
2023-05-06T02:16:11.991Z,6.27
2023-05-06T02:18:41.557Z,2.27
2023-05-06T02:21:11.982Z,2.90
2023-05-06T02:23:40.585Z,2.37
2023-05-06T02:26:08.931Z,2.17
2023-05-06T02:28:38.697Z,6.97
2023-05-06T02:31:07.098Z,2.40
2023-05-06T02:33:35.498Z,2.93
2023-05-06T02:36:03.898Z,4.73
2023-05-06T02:38:32.242Z,2.80
2023-05-06T02:41:01.626Z,2.30
2023-05-06T02:43:29.897Z,3.10
2023-05-06T02:45:59.585Z,2.00
2023-05-06T02:48:28.137Z,3.17
2023-05-06T02:50:56.429Z,3.77
2023-05-06T02:53:24.717Z,3.23
2023-05-06T02:55:53.141Z,2.47
2023-05-06T02:58:21.669Z,2.37
2023-05-06T03:00:50.015Z,1.90
2023-05-06T03:03:20.194Z,2.30
2023-05-06T03:05:48.484Z,2.30
2023-05-06T03:08:16.919Z,2.90
2023-05-06T03:10:45.300Z,2.10
2023-05-06T03:13:14.869Z,4.33
2023-05-06T03:15:43.424Z,2.40
2023-05-06T03:18:11.816Z,2.90
2023-05-06T03:20:42.876Z,3.40
2023-05-06T03:23:14.223Z,2.60
2023-05-06T03:25:42.684Z,2.70
2023-05-06T03:28:11.913Z,2.87
2023-05-06T03:30:41.743Z,2.30
2023-05-06T03:33:10.056Z,2.40
2023-05-06T03:35:38.445Z,2.50
2023-05-06T03:38:08.460Z,2.13
2023-05-06T03:40:44.122Z,3.83
2023-05-06T03:43:15.222Z,2.13
2023-05-06T03:45:45.037Z,3.20
2023-05-06T03:48:13.649Z,2.30
2023-05-06T03:50:44.718Z,2.30
2023-05-06T03:53:15.780Z,1.87
2023-05-06T03:55:46.591Z,4.57
2023-05-06T03:58:15.525Z,2.30
2023-05-06T04:00:46.361Z,2.30
2023-05-06T04:03:14.781Z,2.33
2023-05-06T04:05:47.694Z,3.03
2023-05-06T04:08:19.886Z,2.13
2023-05-06T04:10:48.399Z,2.93
2023-05-06T04:13:28.088Z,3.87
2023-05-06T04:15:59.550Z,2.37
2023-05-06T04:18:35.692Z,2.70
2023-05-06T04:21:08.628Z,2.03
2023-05-06T04:23:40.320Z,2.30
2023-05-06T04:26:10.159Z,2.90
2023-05-06T04:28:42.107Z,13.77
2023-05-06T04:31:14.733Z,4.80
2023-05-06T04:33:47.129Z,6.00
2023-05-06T04:36:19.078Z,3.20
2023-05-06T04:39:18.240Z,6.07
2023-05-06T04:41:49.323Z,4.37
2023-05-06T04:44:22.769Z,2.47
2023-05-06T04:46:52.674Z,3.97
2023-05-06T04:49:22.099Z,6.63
2023-05-06T04:51:50.668Z,3.70
2023-05-06T04:54:20.520Z,6.03
2023-05-06T04:56:48.986Z,3.07
2023-05-06T04:59:19.326Z,2.43
2023-05-06T05:01:47.884Z,4.07
2023-05-06T05:04:17.437Z,3.77
2023-05-06T05:06:45.985Z,3.43
2023-05-06T05:09:14.841Z,3.93
2023-05-06T05:11:47.009Z,4.90
2023-05-06T05:14:15.577Z,4.13
2023-05-06T05:16:44.738Z,2.17
2023-05-06T05:19:13.344Z,2.60
2023-05-06T05:21:41.835Z,4.63
2023-05-06T05:24:12.508Z,4.57
2023-05-06T05:26:40.939Z,5.30
2023-05-06T05:29:11.282Z,6.10
2023-05-06T05:31:39.934Z,5.47
2023-05-06T05:34:08.450Z,9.40
2023-05-06T05:36:36.852Z,4.03
2023-05-06T05:39:08.579Z,4.43
2023-05-06T05:41:42.825Z,4.20
2023-05-06T05:44:12.763Z,5.23
2023-05-06T05:46:42.104Z,2.30
2023-05-06T05:49:13.130Z,4.23
2023-05-06T05:51:42.423Z,3.80
2023-05-06T05:54:13.035Z,6.33
2023-05-06T05:56:42.854Z,11.23
2023-05-06T05:59:13.983Z,4.73
2023-05-06T06:01:43.351Z,9.03
2023-05-06T06:04:11.969Z,4.67
2023-05-06T06:06:40.386Z,7.97
2023-05-06T06:09:08.717Z,2.77
2023-05-06T06:11:38.618Z,4.80
2023-05-06T06:14:08.172Z,3.93
2023-05-06T06:16:39.422Z,4.10
2023-05-06T06:19:07.844Z,5.20
2023-05-06T06:21:37.422Z,7.87
2023-05-06T06:24:06.782Z,4.63
2023-05-06T06:26:35.086Z,6.47
2023-05-06T06:29:03.584Z,3.90
2023-05-06T06:31:34.071Z,4.70
2023-05-06T06:34:06.509Z,6.77
2023-05-06T06:36:35.884Z,5.23
2023-05-06T06:39:04.517Z,3.57
2023-05-06T06:41:32.822Z,4.57
2023-05-06T06:44:01.140Z,5.50
2023-05-06T06:46:31.258Z,8.73
2023-05-06T06:48:59.633Z,5.37
2023-05-06T06:51:29.565Z,3.00
2023-05-06T06:53:57.878Z,4.50
2023-05-06T06:56:26.225Z,4.00
2023-05-06T06:58:54.630Z,6.80
2023-05-06T07:01:22.969Z,3.23
2023-05-06T07:03:51.431Z,4.30
2023-05-06T07:06:19.863Z,4.50
2023-05-06T07:08:49.535Z,7.73
2023-05-06T07:11:17.882Z,6.03
2023-05-06T07:13:46.205Z,10.03
2023-05-06T07:16:14.634Z,5.77
2023-05-06T07:18:43.011Z,4.23
2023-05-06T07:21:11.441Z,6.87
2023-05-06T07:23:39.758Z,4.67
2023-05-06T07:26:09.444Z,6.83
2023-05-06T07:28:37.954Z,5.27
2023-05-06T07:31:06.365Z,5.10
2023-05-06T07:33:34.758Z,5.00
2023-05-06T07:36:03.242Z,5.73
2023-05-06T07:38:31.604Z,5.43
2023-05-06T07:41:00.232Z,13.97
2023-05-06T07:43:29.920Z,12.60
2023-05-06T07:46:02.960Z,9.43
2023-05-06T07:48:32.915Z,19.07
2023-05-06T07:51:01.936Z,12.37
2023-05-06T07:53:30.260Z,13.20
2023-05-06T07:56:02.356Z,15.67
2023-05-06T07:58:32.752Z,19.30
2023-05-06T08:01:01.218Z,11.60
2023-05-06T08:03:29.681Z,12.10
2023-05-06T08:05:58.194Z,7.53
2023-05-06T08:08:28.062Z,9.63
2023-05-06T08:10:57.205Z,7.23
2023-05-06T08:13:25.903Z,7.73
2023-05-06T08:15:57.377Z,8.33
2023-05-06T08:18:25.857Z,8.90
2023-05-06T08:20:54.182Z,7.07
2023-05-06T08:23:23.371Z,10.93
2023-05-06T08:25:51.969Z,7.90
2023-05-06T08:28:20.808Z,5.33
2023-05-06T08:30:51.456Z,10.70
2023-05-06T08:33:21.245Z,6.53
2023-05-06T08:35:50.944Z,5.63
2023-05-06T08:38:19.301Z,6.40
2023-05-06T08:40:50.432Z,4.90
2023-05-06T08:43:22.671Z,11.90
2023-05-06T08:45:51.799Z,5.50
2023-05-06T08:48:21.586Z,6.03
2023-05-06T08:50:52.018Z,6.70
2023-05-06T08:53:20.554Z,5.73
2023-05-06T08:55:50.699Z,5.57
2023-05-06T08:58:19.986Z,8.03
2023-05-06T09:00:48.803Z,14.30
2023-05-06T09:03:17.193Z,7.67
2023-05-06T09:05:46.954Z,4.53
2023-05-06T09:08:16.341Z,3.87
2023-05-06T09:10:46.254Z,6.20
2023-05-06T09:13:15.639Z,4.40
2023-05-06T09:15:44.879Z,3.93
2023-05-06T09:18:13.454Z,5.57
2023-05-06T09:20:43.014Z,3.67
2023-05-06T09:23:14.221Z,7.03
2023-05-06T09:25:42.856Z,4.80
2023-05-06T09:28:12.850Z,5.80
2023-05-06T09:30:41.995Z,4.20
2023-05-06T09:33:11.033Z,6.30
2023-05-06T09:35:42.129Z,5.10
2023-05-06T09:38:12.065Z,5.67
2023-05-06T09:40:40.939Z,4.03
2023-05-06T09:43:10.527Z,9.07
2023-05-06T09:45:38.986Z,5.27
2023-05-06T09:48:09.408Z,4.20
2023-05-06T09:50:38.320Z,5.93
2023-05-06T09:53:07.823Z,7.47
2023-05-06T09:55:42.419Z,6.87
2023-05-06T09:58:11.572Z,7.17
2023-05-06T10:00:40.840Z,5.67
2023-05-06T10:03:10.003Z,6.10
2023-05-06T10:05:38.819Z,5.93
2023-05-06T10:08:09.274Z,6.13
2023-05-06T10:10:42.909Z,6.37
2023-05-06T10:13:12.006Z,9.63
2023-05-06T10:15:41.155Z,5.67
2023-05-06T10:18:10.990Z,4.77
2023-05-06T10:20:42.541Z,6.40
2023-05-06T10:23:18.234Z,4.57
2023-05-06T10:25:52.052Z,7.67
2023-05-06T10:28:30.904Z,13.23
2023-05-06T10:31:00.796Z,8.47
2023-05-06T10:33:30.535Z,4.73
2023-05-06T10:36:08.788Z,6.80
2023-05-06T10:38:42.169Z,5.50
2023-05-06T10:41:12.350Z,4.83
2023-05-06T10:43:42.511Z,4.77
2023-05-06T10:46:12.335Z,3.43
2023-05-06T10:49:01.598Z,6.70
2023-05-06T10:51:32.400Z,4.53
2023-05-06T10:54:05.670Z,3.47
2023-05-06T10:56:37.339Z,4.43
2023-05-06T10:59:10.697Z,4.60
2023-05-06T11:01:40.782Z,3.73
2023-05-06T11:04:10.790Z,4.67
2023-05-06T11:06:42.165Z,2.77
2023-05-06T11:09:18.344Z,4.47
2023-05-06T11:12:00.481Z,3.10
2023-05-06T11:14:35.481Z,3.53
2023-05-06T11:17:05.341Z,3.07
2023-05-06T11:19:35.356Z,4.73
2023-05-06T11:22:06.124Z,3.00
2023-05-06T11:24:42.353Z,5.10
2023-05-06T11:27:12.949Z,2.60
2023-05-06T11:29:44.224Z,3.33
2023-05-06T11:32:24.283Z,4.27
2023-05-06T11:34:57.092Z,2.60
2023-05-06T11:37:30.031Z,2.60
2023-05-06T11:39:58.541Z,6.83
2023-05-06T11:42:29.877Z,3.13
2023-05-06T11:45:02.590Z,2.63
2023-05-06T11:47:30.976Z,2.40
2023-05-06T11:50:00.097Z,3.67
2023-05-06T11:52:28.529Z,4.53
2023-05-06T11:54:56.943Z,4.27
2023-05-06T11:57:27.902Z,6.20
2023-05-06T11:59:56.214Z,2.40
2023-05-06T12:02:24.641Z,4.97
2023-05-06T12:04:53.430Z,4.77
2023-05-06T12:07:22.082Z,4.33
2023-05-06T12:09:51.330Z,3.00
2023-05-06T12:12:22.931Z,3.30
2023-05-06T12:14:54.229Z,5.20
2023-05-06T12:17:23.320Z,2.60
2023-05-06T12:19:51.983Z,3.03
2023-05-06T12:22:22.686Z,4.27
2023-05-06T12:24:51.570Z,2.80
2023-05-06T12:27:33.341Z,2.53
2023-05-06T12:30:04.900Z,3.63
2023-05-06T12:32:33.593Z,3.10
2023-05-06T12:35:05.931Z,3.93
2023-05-06T12:37:34.635Z,4.53
2023-05-06T12:40:04.030Z,4.10
2023-05-06T12:42:32.705Z,5.53
2023-05-06T12:45:16.250Z,6.00
2023-05-06T12:47:54.874Z,3.97
2023-05-06T12:50:34.353Z,2.60
2023-05-06T12:53:03.527Z,2.13
2023-05-06T12:55:32.690Z,3.23
2023-05-06T12:58:01.637Z,3.87
2023-05-06T13:00:31.704Z,5.13
2023-05-06T13:03:00.379Z,4.23
2023-05-06T13:05:29.235Z,4.27
2023-05-06T13:07:57.779Z,1.80
2023-05-06T13:10:26.421Z,2.37
2023-05-06T13:12:54.917Z,3.90
2023-05-06T13:15:23.566Z,2.10
2023-05-06T13:17:53.734Z,3.97
2023-05-06T13:20:22.354Z,3.93
2023-05-06T13:22:54.806Z,2.87
2023-05-06T13:25:23.885Z,2.50
2023-05-06T13:27:52.682Z,1.95
2023-05-06T13:30:21.518Z,2.25
2023-05-06T13:32:50.098Z,3.30
2023-05-06T13:35:20.194Z,2.55
2023-05-06T13:37:48.697Z,8.57
2023-05-06T13:40:17.279Z,2.17
2023-05-06T13:42:45.869Z,2.63
2023-05-06T13:45:15.437Z,1.98
2023-05-06T13:47:44.352Z,2.80
2023-05-06T13:50:13.084Z,3.58
2023-05-06T13:52:43.109Z,2.05
2023-05-06T13:55:11.982Z,3.40
2023-05-06T13:57:40.679Z,2.35
2023-05-06T14:00:11.053Z,2.35
2023-05-06T14:02:39.620Z,2.65
2023-05-06T14:05:09.444Z,3.03
2023-05-06T14:07:40.346Z,3.70
2023-05-06T14:10:12.069Z,4.28
2023-05-06T14:12:41.035Z,9.15
2023-05-06T14:15:10.799Z,3.28
2023-05-06T14:17:40.207Z,3.45
2023-05-06T14:20:10.353Z,3.35
2023-05-06T14:22:41.703Z,3.72
2023-05-06T14:25:12.403Z,3.58
2023-05-06T14:27:43.480Z,4.55
2023-05-06T14:30:12.876Z,3.63
2023-05-06T14:32:41.490Z,5.53
2023-05-06T14:35:11.789Z,3.72
2023-05-06T14:37:41.017Z,4.60
2023-05-06T14:40:12.223Z,5.15
2023-05-06T14:42:40.766Z,6.03
2023-05-06T14:45:10.682Z,4.80
2023-05-06T14:47:40.485Z,5.63
2023-05-06T14:50:10.834Z,3.95
2023-05-06T14:52:40.242Z,6.32
2023-05-06T14:55:12.041Z,8.05
2023-05-06T14:57:43.029Z,3.83
2023-05-06T15:00:14.935Z,5.03
2023-05-06T15:02:43.729Z,5.07
2023-05-06T15:05:13.352Z,3.83
2023-05-06T15:07:42.308Z,5.00
2023-05-06T15:10:12.650Z,5.10
2023-05-06T15:12:42.822Z,5.88
2023-05-06T15:15:11.800Z,3.55
2023-05-06T15:17:41.882Z,4.28
2023-05-06T15:20:11.556Z,4.32
2023-05-06T15:22:40.475Z,6.25
2023-05-06T15:25:19.377Z,3.17
2023-05-06T15:27:52.094Z,6.90
2023-05-06T15:30:20.891Z,7.05
2023-05-06T15:32:49.631Z,4.30
2023-05-06T15:35:18.097Z,3.88
2023-05-06T15:37:46.839Z,6.50
2023-05-06T15:40:17.094Z,6.88
2023-05-06T15:42:45.626Z,8.15
2023-05-06T15:45:14.472Z,9.40
2023-05-06T15:47:44.043Z,7.57
2023-05-06T15:50:21.174Z,4.40
2023-05-06T15:53:00.217Z,5.17
2023-05-06T15:55:30.154Z,4.07
2023-05-06T15:58:00.743Z,5.27
2023-05-06T16:00:29.607Z,5.30
2023-05-06T16:02:58.379Z,6.80
2023-05-06T16:05:27.000Z,4.10
2023-05-06T16:07:56.124Z,6.43
2023-05-06T16:10:24.751Z,5.57
2023-05-06T16:12:54.870Z,4.63
2023-05-06T16:15:23.489Z,4.37
2023-05-06T16:17:52.084Z,7.93
2023-05-06T16:20:21.558Z,6.17
2023-05-06T16:22:51.569Z,6.30
2023-05-06T16:25:20.279Z,5.63
2023-05-06T16:27:48.881Z,4.23
2023-05-06T16:30:19.129Z,8.20
2023-05-06T16:32:47.720Z,4.67
2023-05-06T16:35:17.352Z,5.03
2023-05-06T16:37:46.315Z,4.80
2023-05-06T16:40:16.255Z,6.57
2023-05-06T16:42:44.744Z,5.87
2023-05-06T16:45:13.604Z,5.77
2023-05-06T16:47:45.159Z,4.45
2023-05-06T16:50:14.263Z,6.03
2023-05-06T16:52:42.801Z,5.07
2023-05-06T16:55:13.596Z,6.87
2023-05-06T16:57:42.977Z,4.20
2023-05-06T17:00:12.583Z,4.73
2023-05-06T17:02:42.895Z,4.73
2023-05-06T17:05:11.551Z,5.57
2023-05-06T17:07:40.323Z,4.63
2023-05-06T17:10:10.000Z,4.67
2023-05-06T17:12:38.696Z,7.80
2023-05-06T17:15:08.451Z,5.68
2023-05-06T17:17:37.036Z,5.93
2023-05-06T17:20:08.388Z,5.33
2023-05-06T17:22:37.367Z,4.47
2023-05-06T17:25:06.622Z,7.93
2023-05-06T17:27:35.246Z,4.67
2023-05-06T17:30:03.786Z,5.73
2023-05-06T17:32:32.388Z,9.47
2023-05-06T17:35:01.320Z,4.53
2023-05-06T17:37:32.037Z,8.10
2023-05-06T17:40:00.648Z,6.07
2023-05-06T17:42:29.168Z,5.00
2023-05-06T17:44:57.676Z,6.00
2023-05-06T17:47:30.162Z,5.90
2023-05-06T17:49:59.189Z,5.60
2023-05-06T17:52:27.708Z,5.07
2023-05-06T17:55:14.739Z,4.50
2023-05-06T17:57:44.839Z,5.27
2023-05-06T18:00:15.040Z,9.00
2023-05-06T18:02:44.043Z,7.90
2023-05-06T18:05:13.469Z,8.43
2023-05-06T18:07:42.366Z,8.27
2023-05-06T18:10:12.831Z,8.87
2023-05-06T18:12:42.430Z,7.93
2023-05-06T18:15:12.001Z,8.80
2023-05-06T18:17:40.798Z,6.30
2023-05-06T18:20:11.391Z,7.57
2023-05-06T18:22:40.213Z,16.50
2023-05-06T18:25:10.170Z,10.97
2023-05-06T18:27:42.616Z,9.43
2023-05-06T18:30:11.680Z,10.30
2023-05-06T18:32:40.633Z,8.60
2023-05-06T18:35:11.736Z,13.30
2023-05-06T18:37:40.693Z,15.00
2023-05-06T18:40:10.318Z,10.63
2023-05-06T18:42:38.890Z,16.17
2023-05-06T18:45:10.560Z,16.83
2023-05-06T18:47:40.403Z,13.73
2023-05-06T18:50:10.091Z,13.83
2023-05-06T18:52:38.601Z,11.73
2023-05-06T18:55:08.027Z,17.73
2023-05-06T18:57:36.823Z,19.43
2023-05-06T19:00:07.350Z,23.87
2023-05-06T19:02:38.114Z,13.87
2023-05-06T19:05:11.440Z,13.40
2023-05-06T19:07:40.414Z,24.73
2023-05-06T19:10:10.119Z,14.80
2023-05-06T19:12:38.809Z,32.67
2023-05-06T19:15:08.827Z,19.83
2023-05-06T19:17:39.173Z,13.57
2023-05-06T19:20:09.393Z,17.27
2023-05-06T19:22:38.014Z,19.37
2023-05-06T19:25:08.311Z,16.60
2023-05-06T19:27:37.155Z,15.07
2023-05-06T19:30:06.499Z,25.73
2023-05-06T19:32:36.057Z,17.70
2023-05-06T19:35:08.422Z,14.53
2023-05-06T19:37:37.628Z,17.63
2023-05-06T19:40:08.229Z,16.70
2023-05-06T19:42:36.954Z,33.83
2023-05-06T19:45:08.794Z,18.67
2023-05-06T19:47:38.036Z,23.40
2023-05-06T19:50:09.359Z,19.57
2023-05-06T19:52:38.040Z,22.40
2023-05-06T19:55:07.516Z,11.67
2023-05-06T19:57:37.192Z,10.70
2023-05-06T20:00:11.764Z,9.87
2023-05-06T20:02:41.785Z,9.43
2023-05-06T20:05:12.476Z,11.40
2023-05-06T20:07:41.437Z,17.30
2023-05-06T20:10:13.617Z,13.80
2023-05-06T20:12:42.774Z,11.93
2023-05-06T20:15:12.132Z,23.57
2023-05-06T20:17:40.920Z,21.67
2023-05-06T20:20:12.268Z,13.57
2023-05-06T20:22:41.966Z,13.27
2023-05-06T20:25:11.898Z,9.77
2023-05-06T20:27:40.653Z,6.47
2023-05-06T20:30:10.709Z,11.23
2023-05-06T20:32:39.624Z,12.43
2023-05-06T20:35:09.111Z,13.43
2023-05-06T20:37:41.407Z,13.60
2023-05-06T20:40:11.224Z,11.93
2023-05-06T20:42:40.916Z,10.73
2023-05-06T20:45:10.439Z,10.83
2023-05-06T20:47:39.344Z,8.73
2023-05-06T20:50:08.392Z,8.60
2023-05-06T20:52:38.312Z,10.03
2023-05-06T20:55:07.794Z,12.80
2023-05-06T20:57:36.343Z,13.37
2023-05-06T21:00:07.494Z,9.20
2023-05-06T21:02:41.015Z,10.53
2023-05-06T21:05:10.895Z,14.70
2023-05-06T21:07:41.269Z,14.93
2023-05-06T21:10:12.062Z,14.47
2023-05-06T21:12:48.482Z,10.00
2023-05-06T21:15:17.932Z,11.10
2023-05-06T21:17:46.511Z,16.03
2023-05-06T21:20:15.262Z,10.60
2023-05-06T21:22:45.167Z,7.53
2023-05-06T21:25:14.389Z,8.83
2023-05-06T21:27:42.984Z,10.97
2023-05-06T21:30:12.058Z,12.00
2023-05-06T21:32:40.634Z,9.17
2023-05-06T21:35:09.956Z,11.80
2023-05-06T21:37:38.789Z,13.33
2023-05-06T21:40:10.293Z,14.60
2023-05-06T21:42:38.889Z,6.30
2023-05-06T21:45:08.662Z,14.40
2023-05-06T21:47:37.320Z,14.17
2023-05-06T21:50:06.553Z,58.33
2023-05-06T21:52:35.159Z,25.23
2023-05-06T21:55:03.659Z,20.20
2023-05-06T21:57:33.936Z,23.87
2023-05-06T22:00:07.343Z,9.43
2023-05-06T22:02:36.806Z,7.90
2023-05-06T22:05:05.945Z,7.63
2023-05-06T22:07:34.669Z,8.27
2023-05-06T22:10:03.668Z,7.53
2023-05-06T22:12:34.167Z,12.93
2023-05-06T22:15:02.856Z,16.97
2023-05-06T22:17:32.830Z,48.17
2023-05-06T22:20:02.919Z,16.33
2023-05-06T22:22:31.938Z,18.03
2023-05-06T22:25:01.288Z,9.77
2023-05-06T22:27:29.846Z,9.90
2023-05-06T22:29:59.739Z,12.33
2023-05-06T22:32:28.325Z,9.13
2023-05-06T22:34:56.803Z,14.30
2023-05-06T22:37:25.323Z,23.20
2023-05-06T22:39:56.663Z,11.37
2023-05-06T22:42:25.773Z,11.50
2023-05-06T22:44:54.287Z,20.63
2023-05-06T22:54:13.042Z,9.33
2023-05-06T22:56:41.586Z,17.80
2023-05-06T22:59:10.065Z,12.03
2023-05-06T23:01:38.770Z,8.90
2023-05-06T23:04:11.113Z,8.63
2023-05-06T23:06:40.124Z,6.77
2023-05-06T23:09:08.600Z,6.57
2023-05-06T23:11:38.775Z,6.10
2023-05-06T23:14:08.307Z,8.33
2023-05-06T23:16:36.947Z,9.60
2023-05-06T23:19:05.674Z,10.20
2023-05-06T23:21:35.070Z,7.77
2023-05-06T23:24:03.585Z,18.23
2023-05-06T23:26:32.102Z,16.07
2023-05-06T23:29:02.007Z,18.13
2023-05-06T23:31:30.691Z,16.27
2023-05-06T23:33:59.301Z,15.90
2023-05-06T23:36:27.929Z,6.90
2023-05-06T23:38:56.625Z,8.83
2023-05-06T23:41:25.239Z,13.30
2023-05-06T23:43:53.807Z,9.47
2023-05-06T23:46:23.726Z,7.53
2023-05-06T23:48:52.289Z,10.97
2023-05-06T23:51:20.788Z,12.40
2023-05-06T23:53:49.264Z,9.90
2023-05-06T23:56:17.846Z,13.53
2023-05-06T23:58:46.379Z,15.07
